createdAt,value
2023-01-13T00:00:17.309Z,99423.06
2023-01-13T00:02:44.031Z,99421.78
2023-01-13T00:05:11.124Z,99426.91
2023-01-13T00:07:40.276Z,99426.22
2023-01-13T00:10:13.790Z,99426.91
2023-01-13T00:12:41.471Z,99421.22
2023-01-13T00:15:08.883Z,99420.09
2023-01-13T00:17:35.576Z,99425.19
2023-01-13T00:20:02.387Z,99429.63
2023-01-13T00:22:29.430Z,99421.13
2023-01-13T00:24:58.271Z,99424.69
2023-01-13T00:27:25.788Z,99422.97
2023-01-13T00:29:52.418Z,99424.59
2023-01-13T00:32:22.148Z,99426.53
2023-01-13T00:34:48.735Z,99428.25
2023-01-13T00:37:15.533Z,99431.19
2023-01-13T00:39:42.380Z,99406.81
2023-01-13T00:42:27.784Z,99410.66
2023-01-13T00:44:54.490Z,99412.44
2023-01-13T00:47:21.149Z,99406.13
2023-01-13T00:49:47.715Z,99415.84
2023-01-13T00:52:17.460Z,99394.38
2023-01-13T00:54:44.120Z,99400.69
2023-01-13T00:57:13.212Z,99395.72
2023-01-13T00:59:39.868Z,99387.56
2023-01-13T01:02:06.683Z,99402.38
2023-01-13T01:04:33.345Z,99403.41
2023-01-13T01:06:59.997Z,99401.28
2023-01-13T01:09:32.719Z,99400.50
2023-01-13T01:12:02.044Z,99403.59
2023-01-13T01:14:31.684Z,99396.09
2023-01-13T01:17:06.163Z,99392.66
2023-01-13T01:19:32.916Z,99393.69
2023-01-13T01:21:59.488Z,99399.66
2023-01-13T01:24:26.105Z,99402.06
2023-01-13T01:26:52.712Z,99376.81
2023-01-13T01:29:19.332Z,99381.78
2023-01-13T01:31:46.776Z,99374.28
2023-01-13T01:34:13.843Z,99370.13
2023-01-13T01:36:43.537Z,99380.84
2023-01-13T01:39:10.158Z,99387.75
2023-01-13T01:41:37.105Z,99380.34
2023-01-13T01:44:22.783Z,99381.09
2023-01-13T01:46:52.543Z,99373.44
2023-01-13T01:49:27.809Z,99371.03
2023-01-13T01:51:57.552Z,99385.72
2023-01-13T01:54:42.497Z,99374.63
2023-01-13T01:57:11.426Z,99373.44
2023-01-13T01:59:38.833Z,99371.06
2023-01-13T02:02:06.733Z,99368.97
2023-01-13T02:04:43.445Z,99374.50
2023-01-13T02:07:10.563Z,99374.59
2023-01-13T02:09:37.220Z,99368.31
2023-01-13T02:12:22.582Z,99366.78
2023-01-13T02:14:49.253Z,99368.50
2023-01-13T02:17:29.346Z,99359.81
2023-01-13T02:20:15.466Z,99365.78
2023-01-13T02:22:47.152Z,99350.41
2023-01-13T02:25:14.003Z,99348.22
2023-01-13T02:27:43.752Z,99357.56
2023-01-13T02:30:48.047Z,99354.84
2023-01-13T02:33:17.723Z,99360.31
2023-01-13T02:35:50.357Z,99356.91
2023-01-13T02:38:22.787Z,99365.41
2023-01-13T02:40:59.214Z,99350.16
2023-01-13T02:44:09.461Z,99362.34
2023-01-13T02:46:48.285Z,99360.31
2023-01-13T02:49:20.097Z,99362.13
2023-01-13T02:51:47.527Z,99355.09
2023-01-13T02:54:18.160Z,99357.06
2023-01-13T02:56:47.749Z,99350.25
2023-01-13T02:59:14.465Z,99351.38
2023-01-13T03:01:42.439Z,99366.03
2023-01-13T03:04:13.193Z,99360.56
2023-01-13T03:06:54.573Z,99358.81
2023-01-13T03:09:33.036Z,99342.09
2023-01-13T03:12:07.259Z,99346.13
2023-01-13T03:14:43.622Z,99356.94
2023-01-13T03:17:10.194Z,99361.53
2023-01-13T03:19:55.692Z,99364.22
2023-01-13T03:22:32.061Z,99366.03
2023-01-13T03:25:18.693Z,99367.94
2023-01-13T03:27:57.284Z,99369.28
2023-01-13T03:30:29.773Z,99367.13
2023-01-13T03:33:17.111Z,99366.78
2023-01-13T03:35:45.717Z,99384.28
2023-01-13T03:38:15.078Z,99383.41
2023-01-13T03:40:44.398Z,99381.34
2023-01-13T03:43:33.162Z,99382.72
2023-01-13T03:46:03.512Z,99384.28
2023-01-13T03:48:33.210Z,99387.38
2023-01-13T03:51:06.472Z,99388.22
2023-01-13T03:53:43.621Z,99393.19
2023-01-13T03:56:16.488Z,99387.22
2023-01-13T03:58:45.752Z,99370.38
2023-01-13T04:01:15.827Z,99388.25
2023-01-13T04:04:01.440Z,99396.19
2023-01-13T04:06:46.875Z,99398.72
2023-01-13T04:09:31.991Z,99401.09
2023-01-13T04:12:07.475Z,99378.53
2023-01-13T04:14:35.023Z,99383.28
2023-01-13T04:17:01.595Z,99391.72
2023-01-13T04:19:28.222Z,99394.91
2023-01-13T04:21:54.918Z,99385.19
2023-01-13T04:24:21.532Z,99373.63
2023-01-13T04:26:48.148Z,99366.47
2023-01-13T04:29:15.807Z,99382.88
2023-01-13T04:31:42.952Z,99390.81
2023-01-13T04:34:12.643Z,99390.63
2023-01-13T04:36:42.282Z,99388.41
2023-01-13T04:39:09.471Z,99357.75
2023-01-13T04:41:54.681Z,99371.22
2023-01-13T04:44:21.311Z,99378.19
2023-01-13T04:46:47.922Z,99372.06
2023-01-13T04:49:14.719Z,99378.00
2023-01-13T04:51:41.266Z,99389.53
2023-01-13T04:54:09.629Z,99395.75
2023-01-13T04:56:39.402Z,99379.38
2023-01-13T04:59:06.113Z,99363.63
2023-01-13T05:01:32.825Z,99385.84
2023-01-13T05:03:59.580Z,99389.97
2023-01-13T05:06:26.172Z,99390.72
2023-01-13T05:08:52.855Z,99381.34
2023-01-13T05:11:38.271Z,99393.44
2023-01-13T05:14:25.897Z,99387.91
2023-01-13T05:17:00.375Z,99402.06
2023-01-13T05:19:28.257Z,99410.56
2023-01-13T05:22:13.532Z,99418.91
2023-01-13T05:24:59.355Z,99421.78
2023-01-13T05:27:26.395Z,99414.97
2023-01-13T05:29:53.843Z,99422.66
2023-01-13T05:32:20.872Z,99411.59
2023-01-13T05:34:47.574Z,99406.22
2023-01-13T05:37:14.300Z,99413.28
2023-01-13T05:39:59.549Z,99415.50
2023-01-13T05:42:44.715Z,99402.06
2023-01-13T05:45:11.708Z,99411.50
2023-01-13T05:47:38.390Z,99405.63
2023-01-13T05:50:05.658Z,99412.59
2023-01-13T05:52:34.359Z,99409.34
2023-01-13T05:55:01.028Z,99413.47
2023-01-13T05:57:27.588Z,99419.75
2023-01-13T06:00:00.366Z,99418.31
2023-01-13T06:02:27.359Z,99421.97
2023-01-13T06:04:53.921Z,99411.91
2023-01-13T06:07:20.537Z,99412.44
2023-01-13T06:09:49.408Z,99409.88
2023-01-13T06:12:16.093Z,99408.69
2023-01-13T06:14:42.772Z,99411.56
2023-01-13T06:17:14.079Z,99404.06
2023-01-13T06:19:41.156Z,99404.84
2023-01-13T06:22:24.191Z,99407.97
2023-01-13T06:24:53.653Z,99414.16
2023-01-13T06:27:21.014Z,99410.88
2023-01-13T06:29:47.866Z,99410.19
2023-01-13T06:32:16.802Z,99409.78
2023-01-13T06:34:53.266Z,99421.94
2023-01-13T06:37:23.406Z,99417.06
2023-01-13T06:39:50.045Z,99424.72
2023-01-13T06:42:35.359Z,99420.28
2023-01-13T06:45:01.984Z,99409.31
2023-01-13T06:47:28.552Z,99405.34
2023-01-13T06:49:55.236Z,99413.72
2023-01-13T06:52:21.922Z,99414.22
2023-01-13T06:54:48.630Z,99416.41
2023-01-13T06:57:15.255Z,99412.28
2023-01-13T06:59:44.226Z,99413.56
2023-01-13T07:02:10.950Z,99421.03
2023-01-13T07:04:37.701Z,99426.72
2023-01-13T07:07:04.263Z,99433.22
2023-01-13T07:09:30.944Z,99437.97
2023-01-13T07:11:58.261Z,99439.69
2023-01-13T07:14:54.117Z,99437.44
2023-01-13T07:17:25.499Z,99431.03
2023-01-13T07:19:55.547Z,99429.31
2023-01-13T07:22:22.254Z,99432.59
2023-01-13T07:24:48.883Z,99435.44
2023-01-13T07:27:15.542Z,99426.09
2023-01-13T07:29:43.863Z,99438.97
2023-01-13T07:32:10.516Z,99442.69
2023-01-13T07:34:37.086Z,99442.69
2023-01-13T07:37:07.403Z,99441.84
2023-01-13T07:39:34.064Z,99446.09
2023-01-13T07:42:19.272Z,99439.28
2023-01-13T07:44:48.512Z,99436.22
2023-01-13T07:47:17.192Z,99445.81
2023-01-13T07:49:43.813Z,99437.00
2023-01-13T07:52:13.484Z,99441.13
2023-01-13T07:54:41.323Z,99425.91
2023-01-13T07:57:08.398Z,99423.38
2023-01-13T07:59:36.112Z,99423.91
2023-01-13T08:02:02.850Z,99422.19
2023-01-13T08:04:29.670Z,99416.72
2023-01-13T08:06:56.322Z,99417.38
2023-01-13T08:09:26.112Z,99425.06
2023-01-13T08:12:14.345Z,99414.09
2023-01-13T08:14:41.125Z,99433.50
2023-01-13T08:17:08.161Z,99422.50
2023-01-13T08:19:34.866Z,99432.31
2023-01-13T08:22:01.485Z,99431.16
2023-01-13T08:24:28.151Z,99424.72
2023-01-13T08:26:54.811Z,99430.00
2023-01-13T08:29:21.482Z,99429.72
2023-01-13T08:31:48.102Z,99428.28
2023-01-13T08:34:21.856Z,99428.16
2023-01-13T08:36:51.792Z,99437.28
2023-01-13T08:39:18.776Z,99436.78
2023-01-13T08:42:02.767Z,99447.88
2023-01-13T08:44:30.827Z,99461.41
2023-01-13T08:46:57.854Z,99456.69
2023-01-13T08:49:25.072Z,99459.97
2023-01-13T08:51:52.263Z,99469.56
2023-01-13T08:54:19.027Z,99471.19
2023-01-13T08:56:46.276Z,99479.56
2023-01-13T08:59:13.962Z,99491.56
2023-01-13T09:01:41.140Z,99482.59
2023-01-13T09:04:13.542Z,99472.28
2023-01-13T09:06:40.193Z,99482.44
2023-01-13T09:09:06.784Z,99480.72
2023-01-13T09:11:54.012Z,99466.19
2023-01-13T09:14:21.337Z,99468.94
2023-01-13T09:16:48.001Z,99471.22
2023-01-13T09:19:14.903Z,99471.63
2023-01-13T09:21:41.852Z,99468.53
2023-01-13T09:24:08.578Z,99466.66
2023-01-13T09:26:35.227Z,99464.53
2023-01-13T09:29:04.917Z,99470.72
2023-01-13T09:31:34.543Z,99475.78
2023-01-13T09:34:20.467Z,99473.13
2023-01-13T09:36:47.317Z,99478.63
2023-01-13T09:39:13.959Z,99480.66
2023-01-13T09:42:03.720Z,99494.84
2023-01-13T09:44:50.587Z,99488.03
2023-01-13T09:47:37.559Z,99488.38
2023-01-13T09:50:10.378Z,99489.72
2023-01-13T09:52:37.135Z,99478.19
2023-01-13T09:55:05.643Z,99477.50
2023-01-13T09:57:34.477Z,99483.09
2023-01-13T10:00:01.096Z,99477.72
2023-01-13T10:02:56.912Z,99475.53
2023-01-13T10:05:42.322Z,99475.38
2023-01-13T10:08:13.491Z,99486.66
2023-01-13T10:10:45.645Z,99482.38
2023-01-13T10:13:20.934Z,99475.38
2023-01-13T10:16:03.255Z,99490.59
2023-01-13T10:18:53.282Z,99484.75
2023-01-13T10:21:26.066Z,99476.94
2023-01-13T10:23:58.867Z,99481.94
2023-01-13T10:26:46.689Z,99482.25
2023-01-13T10:29:21.093Z,99487.03
2023-01-13T10:31:47.786Z,99487.69
2023-01-13T10:34:16.801Z,99482.25
2023-01-13T10:37:10.891Z,99486.34
2023-01-13T10:39:45.054Z,99476.13
2023-01-13T10:42:22.983Z,99482.59
2023-01-13T10:44:49.706Z,99480.22
2023-01-13T10:47:29.968Z,99477.91
2023-01-13T10:50:11.918Z,99480.34
2023-01-13T10:52:56.120Z,99480.84
2023-01-13T10:55:26.015Z,99492.19
2023-01-13T10:57:52.663Z,99489.13
2023-01-13T11:00:45.971Z,99479.41
2023-01-13T11:03:17.748Z,99482.13
2023-01-13T11:05:50.664Z,99480.09
2023-01-13T11:08:18.755Z,99477.59
2023-01-13T11:10:47.068Z,99477.28
2023-01-13T11:13:19.547Z,99485.63
2023-01-13T11:15:59.203Z,99466.63
2023-01-13T11:18:40.294Z,99475.78
2023-01-13T11:21:21.563Z,99480.34
2023-01-13T11:23:50.876Z,99476.47
2023-01-13T11:26:27.241Z,99489.66
2023-01-13T11:29:00.955Z,99487.34
2023-01-13T11:31:33.802Z,99492.28
2023-01-13T11:34:09.015Z,99496.56
2023-01-13T11:36:40.394Z,99483.41
2023-01-13T11:39:24.288Z,99481.75
2023-01-13T11:42:16.386Z,99476.78
2023-01-13T11:44:55.083Z,99481.22
2023-01-13T11:47:23.523Z,99481.06
2023-01-13T11:49:50.232Z,99486.75
2023-01-13T11:52:29.241Z,99486.00
2023-01-13T11:54:59.180Z,99485.00
2023-01-13T11:57:47.699Z,99492.28
2023-01-13T12:00:46.845Z,99497.22
2023-01-13T12:03:16.275Z,99495.56
2023-01-13T12:05:48.120Z,99497.41
2023-01-13T12:08:20.274Z,99486.47
2023-01-13T12:10:56.221Z,99494.63
2023-01-13T12:13:22.923Z,99496.00
2023-01-13T12:15:52.988Z,99505.84
2023-01-13T12:18:19.569Z,99501.16
2023-01-13T12:20:53.024Z,99511.69
2023-01-13T12:23:22.820Z,99509.31
2023-01-13T12:25:52.180Z,99523.59
2023-01-13T12:28:23.239Z,99516.72
2023-01-13T12:30:51.890Z,99511.56
2023-01-13T12:33:25.250Z,99500.25
2023-01-13T12:35:59.811Z,99502.34
2023-01-13T12:38:34.567Z,99494.44
2023-01-13T12:41:01.215Z,99497.38
2023-01-13T12:43:48.563Z,99498.19
2023-01-13T12:46:21.589Z,99501.00
2023-01-13T12:48:54.724Z,99501.84
2023-01-13T12:51:28.647Z,99498.94
2023-01-13T12:53:56.545Z,99495.69
2023-01-13T12:56:42.425Z,99488.00
2023-01-13T12:59:21.586Z,99494.72
2023-01-13T13:02:08.257Z,99485.66
2023-01-13T13:05:01.506Z,99488.78
2023-01-13T13:07:31.677Z,99488.75
2023-01-13T13:10:24.493Z,99486.00
2023-01-13T13:13:21.405Z,99490.22
2023-01-13T13:15:50.009Z,99482.09
2023-01-13T13:18:28.688Z,99489.41
2023-01-13T13:20:57.497Z,99487.16
2023-01-13T13:23:51.460Z,99480.13
2023-01-13T13:26:26.502Z,99484.22
2023-01-13T13:28:56.319Z,99490.91
2023-01-13T13:31:58.545Z,99496.19
2023-01-13T13:34:31.179Z,99496.31
2023-01-13T13:37:04.370Z,99507.53
2023-01-13T13:39:50.698Z,99504.88
2023-01-13T13:42:45.871Z,99499.00
2023-01-13T13:45:49.496Z,99499.75
2023-01-13T13:48:19.385Z,99516.44
2023-01-13T13:50:50.196Z,99507.50
2023-01-13T13:53:19.187Z,99516.72
2023-01-13T13:55:53.473Z,99529.38
2023-01-13T13:58:20.753Z,99530.72
2023-01-13T14:00:48.324Z,99523.84
2023-01-13T14:03:33.973Z,99530.34
2023-01-13T14:06:02.708Z,99550.22
2023-01-13T14:08:30.318Z,99542.13
2023-01-13T14:10:57.025Z,99546.19
2023-01-13T14:13:25.269Z,99544.03
2023-01-13T14:15:57.163Z,99557.44
2023-01-13T14:18:27.084Z,99551.94
2023-01-13T14:21:04.378Z,99558.16
2023-01-13T14:23:34.241Z,99560.78
2023-01-13T14:26:03.035Z,99565.44
2023-01-13T14:28:29.643Z,99569.16
2023-01-13T14:30:57.319Z,99573.25
2023-01-13T14:33:40.762Z,99590.41
2023-01-13T14:36:10.609Z,99594.69
2023-01-13T14:38:37.818Z,99602.41
2023-01-13T14:41:33.866Z,99605.88
2023-01-13T14:44:01.813Z,99606.41
2023-01-13T14:46:37.719Z,99608.50
2023-01-13T14:49:04.522Z,99613.41
2023-01-13T14:51:31.546Z,99612.41
2023-01-13T14:53:59.294Z,99626.06
2023-01-13T14:56:47.286Z,99619.34
2023-01-13T14:59:34.130Z,99618.34
2023-01-13T15:02:01.880Z,99631.16
2023-01-13T15:04:33.509Z,99629.63
2023-01-13T15:07:01.411Z,99629.47
2023-01-13T15:09:33.664Z,99625.50
2023-01-13T15:12:12.729Z,99635.03
2023-01-13T15:14:39.995Z,99636.88
2023-01-13T15:17:13.397Z,99645.56
2023-01-13T15:19:42.485Z,99638.81
2023-01-13T15:22:09.249Z,99636.72
2023-01-13T15:24:36.022Z,99647.63
2023-01-13T15:27:04.408Z,99642.63
2023-01-13T15:29:31.240Z,99658.19
2023-01-13T15:31:57.859Z,99663.03
2023-01-13T15:34:24.757Z,99670.00
2023-01-13T15:36:51.327Z,99683.47
2023-01-13T15:39:17.999Z,99669.41
2023-01-13T15:42:03.353Z,99670.59
2023-01-13T15:47:39.599Z,99680.38
2023-01-13T15:50:06.452Z,99685.50
2023-01-13T15:52:33.074Z,99679.13
2023-01-13T15:54:59.833Z,99682.09
2023-01-13T15:57:31.751Z,99671.25
2023-01-13T16:00:03.375Z,99672.81
2023-01-13T16:02:33.274Z,99678.38
2023-01-13T16:05:00.214Z,99678.72
2023-01-13T16:07:26.787Z,99685.38
2023-01-13T16:09:53.547Z,99694.91
2023-01-13T16:12:20.297Z,99692.66
2023-01-13T16:14:47.025Z,99685.47
2023-01-13T16:17:21.851Z,99694.66
2023-01-13T16:19:48.813Z,99701.78
2023-01-13T16:22:23.379Z,99690.47
2023-01-13T16:24:50.164Z,99706.75
2023-01-13T16:27:18.682Z,99706.97
2023-01-13T16:29:46.029Z,99709.28
2023-01-13T16:32:12.760Z,99724.91
2023-01-13T16:34:39.853Z,99714.13
2023-01-13T16:37:15.138Z,99714.00
2023-01-13T16:39:41.755Z,99725.97
2023-01-13T16:42:08.647Z,99727.34
2023-01-13T16:44:35.284Z,99724.84
2023-01-13T16:47:07.118Z,99742.13
2023-01-13T16:49:41.816Z,99740.97
2023-01-13T16:52:08.629Z,99724.47
2023-01-13T16:54:35.209Z,99733.09
2023-01-13T16:57:01.966Z,99723.34
2023-01-13T16:59:28.623Z,99727.50
2023-01-13T17:01:55.397Z,99729.13
2023-01-13T17:04:22.304Z,99735.72
2023-01-13T17:06:48.956Z,99736.25
2023-01-13T17:09:23.504Z,99735.25
2023-01-13T17:11:51.002Z,99738.66
2023-01-13T17:14:19.545Z,99747.09
2023-01-13T17:16:49.241Z,99754.56
2023-01-13T17:19:15.949Z,99755.06
2023-01-13T17:21:42.740Z,99762.81
2023-01-13T17:24:10.726Z,99761.09
2023-01-13T17:26:38.844Z,99764.53
2023-01-13T17:29:06.863Z,99765.34
2023-01-13T17:31:36.598Z,99767.16
2023-01-13T17:34:04.308Z,99769.06
2023-01-13T17:36:31.545Z,99754.88
2023-01-13T17:38:58.398Z,99763.06
2023-01-13T17:41:25.411Z,99765.41
2023-01-13T17:43:52.721Z,99761.81
2023-01-13T17:46:22.524Z,99779.47
2023-01-13T17:48:50.827Z,99779.59
2023-01-13T17:51:18.808Z,99793.13
2023-01-13T17:53:45.674Z,99777.03
2023-01-13T17:56:13.666Z,99783.41
2023-01-13T17:58:44.538Z,99788.31
2023-01-13T18:01:13.633Z,99776.16
2023-01-13T18:03:40.369Z,99782.31
2023-01-13T18:06:09.160Z,99793.44
2023-01-13T18:08:35.814Z,99791.47
2023-01-13T18:11:03.004Z,99785.66
2023-01-13T18:13:31.467Z,99794.41
2023-01-13T18:16:04.152Z,99795.00
2023-01-13T18:18:30.828Z,99790.34
2023-01-13T18:21:16.399Z,99800.41
2023-01-13T18:24:01.796Z,99803.19
2023-01-13T18:26:47.015Z,99800.28
2023-01-13T18:29:13.685Z,99807.84
2023-01-13T18:31:40.733Z,99794.41
2023-01-13T18:34:07.436Z,99806.41
2023-01-13T18:36:34.196Z,99801.25
2023-01-13T18:39:00.906Z,99794.34
2023-01-13T18:41:49.282Z,99795.97
2023-01-13T18:44:15.896Z,99801.72
2023-01-13T18:46:42.471Z,99809.13
2023-01-13T18:49:11.166Z,99813.97
2023-01-13T18:51:50.233Z,99810.41
2023-01-13T18:54:19.118Z,99819.59
2023-01-13T18:56:46.847Z,99826.31
2023-01-13T18:59:13.551Z,99836.69
2023-01-13T19:01:40.437Z,99847.34
2023-01-13T19:04:27.637Z,99851.69
2023-01-13T19:07:00.813Z,99854.88
2023-01-13T19:09:28.887Z,99854.84
2023-01-13T19:11:56.828Z,99862.53
2023-01-13T19:14:39.661Z,99870.19
2023-01-13T19:17:20.151Z,99865.69
2023-01-13T19:19:48.934Z,99881.16
2023-01-13T19:22:22.981Z,99873.75
2023-01-13T19:24:51.030Z,99887.81
2023-01-13T19:27:22.174Z,99885.38
2023-01-13T19:32:34.577Z,99887.53
2023-01-13T19:35:01.492Z,99877.50
2023-01-13T19:37:33.609Z,99899.16
2023-01-13T19:40:09.441Z,99892.31
2023-01-13T19:42:55.451Z,99899.56
2023-01-13T19:45:28.501Z,99912.72
2023-01-13T19:47:55.987Z,99911.69
2023-01-13T19:50:23.455Z,99915.69
2023-01-13T19:52:50.098Z,99916.84
2023-01-13T19:55:16.719Z,99913.63
2023-01-13T19:57:43.544Z,99926.09
2023-01-13T20:00:11.175Z,99927.94
2023-01-13T20:02:47.834Z,99934.66
2023-01-13T20:05:18.266Z,99940.94
2023-01-13T20:07:45.001Z,99934.56
2023-01-13T20:10:13.236Z,99950.34
2023-01-13T20:12:40.292Z,99941.50
2023-01-13T20:17:47.882Z,99938.22
2023-01-13T20:20:15.870Z,99957.19
2023-01-13T20:22:42.728Z,99962.78
2023-01-13T20:25:09.623Z,99964.06
2023-01-13T20:27:36.690Z,99955.00
2023-01-13T20:30:04.238Z,99962.28
2023-01-13T20:32:31.032Z,99955.19
2023-01-13T20:34:58.125Z,99958.72
2023-01-13T20:37:24.980Z,99950.00
2023-01-13T20:39:51.634Z,99967.16
2023-01-13T20:42:30.530Z,99979.31
2023-01-13T20:45:03.236Z,99989.50
2023-01-13T20:47:29.962Z,99978.56
2023-01-13T20:49:56.642Z,99993.44
2023-01-13T20:52:23.436Z,99990.13
2023-01-13T20:54:53.156Z,99993.81
2023-01-13T20:57:20.163Z,99995.91
2023-01-13T20:59:50.033Z,100008.75
2023-01-13T21:02:17.324Z,100000.75
2023-01-13T21:04:44.164Z,100002.25
2023-01-13T21:07:14.000Z,100009.78
2023-01-13T21:09:40.658Z,99996.78
2023-01-13T21:12:26.802Z,100006.34
2023-01-13T21:15:15.496Z,99989.66
2023-01-13T21:18:01.858Z,100008.44
2023-01-13T21:20:35.609Z,100006.34
2023-01-13T21:23:03.276Z,100015.69
2023-01-13T21:25:30.385Z,100023.63
2023-01-13T21:28:07.383Z,100016.88
2023-01-13T21:30:34.352Z,100024.78
2023-01-13T21:33:01.218Z,100024.44
2023-01-13T21:35:27.940Z,100029.00
2023-01-13T21:37:54.485Z,100031.28
2023-01-13T21:40:21.605Z,100046.56
2023-01-13T21:43:06.916Z,100057.84
2023-01-13T21:45:54.902Z,100073.97
2023-01-13T21:48:21.591Z,100076.66
2023-01-13T21:50:48.204Z,100080.47
2023-01-13T21:53:14.933Z,100109.00
2023-01-13T21:55:42.670Z,100112.16
2023-01-13T21:58:13.750Z,100107.22
2023-01-13T22:00:41.589Z,100114.38
2023-01-13T22:03:09.036Z,100126.22
2023-01-13T22:05:36.284Z,100128.91
2023-01-13T22:08:03.472Z,100121.56
2023-01-13T22:10:30.729Z,100125.94
2023-01-13T22:13:23.662Z,100132.97
2023-01-13T22:15:50.337Z,100126.00
2023-01-13T22:18:20.701Z,100115.16
2023-01-13T22:20:48.775Z,100123.97
2023-01-13T22:23:15.390Z,100131.00
2023-01-13T22:25:42.011Z,100135.88
2023-01-13T22:28:09.431Z,100140.63
2023-01-13T22:30:36.728Z,100135.69
2023-01-13T22:33:03.524Z,100134.38
2023-01-13T22:35:30.320Z,100132.25
2023-01-13T22:37:56.974Z,100138.41
2023-01-13T22:40:23.936Z,100149.69
2023-01-13T22:42:50.919Z,100148.66
2023-01-13T22:45:17.639Z,100145.34
2023-01-13T22:47:44.205Z,100154.97
2023-01-13T22:50:12.658Z,100158.34
2023-01-13T22:52:39.624Z,100163.59
2023-01-13T22:55:06.954Z,100177.81
2023-01-13T22:57:36.446Z,100175.16
2023-01-13T23:00:10.064Z,100166.28
2023-01-13T23:02:37.816Z,100166.88
2023-01-13T23:05:04.616Z,100173.53
2023-01-13T23:07:31.195Z,100177.38
2023-01-13T23:09:57.859Z,100180.13
2023-01-13T23:12:24.468Z,100183.06
2023-01-13T23:14:51.165Z,100180.22
2023-01-13T23:17:17.797Z,100177.28
2023-01-13T23:19:44.466Z,100188.50
2023-01-13T23:22:11.091Z,100188.75
2023-01-13T23:24:37.695Z,100191.13
2023-01-13T23:27:04.266Z,100207.91
2023-01-13T23:29:30.924Z,100210.25
2023-01-13T23:31:57.469Z,100208.56
2023-01-13T23:34:24.111Z,100206.13
2023-01-13T23:36:50.634Z,100215.00
2023-01-13T23:39:19.628Z,100212.69
2023-01-13T23:41:46.193Z,100217.78
2023-01-13T23:44:14.055Z,100209.72
2023-01-13T23:46:40.980Z,100224.47
2023-01-13T23:49:07.849Z,100216.94
2023-01-13T23:51:34.548Z,100227.59
2023-01-13T23:54:01.363Z,100224.34
2023-01-13T23:56:31.473Z,100233.69
2023-01-13T23:58:58.376Z,100235.59
